createdAt,value
2022-11-27T08:19:25.018Z,97380.53
2022-11-27T08:20:26.522Z,97387.44
2022-11-27T08:21:32.222Z,97385.81
2022-11-27T08:22:34.069Z,97382.38
2022-11-27T08:23:35.577Z,97388.38
2022-11-27T08:24:39.029Z,97390.84
2022-11-27T08:25:40.744Z,97398.19
2022-11-27T08:26:42.342Z,97398.19
2022-11-27T08:27:44.002Z,97386.56
2022-11-27T08:28:45.430Z,97401.63
2022-11-27T08:29:50.724Z,97400.63
2022-11-27T08:30:57.294Z,97377.66
2022-11-27T08:31:58.715Z,97389.06
2022-11-27T08:33:00.795Z,97392.84
2022-11-27T08:34:02.152Z,97388.78
2022-11-27T08:35:03.666Z,97397.47
2022-11-27T08:36:08.113Z,97398.47
2022-11-27T08:37:10.420Z,97390.66
2022-11-27T08:38:14.631Z,97382.88
2022-11-27T08:39:16.086Z,97378.53
2022-11-27T08:40:17.519Z,97378.41
2022-11-27T08:41:18.906Z,97369.72
2022-11-27T08:42:20.288Z,97352.59
2022-11-27T08:43:22.250Z,97364.66
2022-11-27T08:44:26.363Z,97360.69
2022-11-27T08:45:27.779Z,97355.47
2022-11-27T08:46:29.237Z,97357.94
2022-11-27T08:47:31.863Z,97351.88
2022-11-27T08:48:33.527Z,97341.47
2022-11-27T08:49:35.653Z,97353.44
2022-11-27T08:50:38.513Z,97345.59
2022-11-27T08:51:40.437Z,97350.94
2022-11-27T08:52:41.779Z,97354.50
2022-11-27T08:53:45.607Z,97353.72
2022-11-27T08:54:47.249Z,97343.28
2022-11-27T08:55:48.754Z,97331.06
2022-11-27T08:56:52.380Z,97354.91
2022-11-27T08:57:53.779Z,97364.44
2022-11-27T08:58:55.288Z,97351.50
2022-11-27T09:28:18.064Z,97337.94
2022-11-27T09:29:19.482Z,97339.72
2022-11-27T09:30:20.953Z,97322.50
2022-11-27T09:31:23.063Z,97316.38
2022-11-27T09:32:24.732Z,97336.50
2022-11-27T09:33:28.072Z,97329.84
2022-11-27T09:34:34.622Z,97331.81
2022-11-27T09:35:39.083Z,97333.59
2022-11-27T09:36:40.604Z,97335.53
2022-11-27T09:37:41.993Z,97331.50
2022-11-27T09:38:44.063Z,97329.06
2022-11-27T09:39:45.430Z,97342.22
2022-11-27T09:40:52.919Z,97347.06
2022-11-27T09:41:59.596Z,97338.19
2022-11-27T09:43:08.903Z,97336.34
2022-11-27T09:44:29.604Z,97339.16
2022-11-27T09:45:31.500Z,97321.50
2022-11-27T09:46:37.312Z,97307.59
2022-11-27T09:47:44.196Z,97329.91
2022-11-27T09:48:49.839Z,97329.97
2022-11-27T09:50:00.588Z,97322.84
2022-11-27T09:51:14.967Z,97299.66
2022-11-27T09:52:38.339Z,97314.78
2022-11-27T09:53:44.252Z,97313.06
2022-11-27T09:55:09.732Z,97297.94
2022-11-27T09:56:14.530Z,97310.53
2022-11-27T09:57:22.103Z,97290.41
2022-11-27T09:58:38.835Z,97308.34
2022-11-27T09:59:45.351Z,97303.75
2022-11-27T10:00:47.626Z,97305.13
2022-11-27T10:01:51.094Z,97311.28
2022-11-27T10:02:53.941Z,97308.34
2022-11-27T10:03:55.818Z,97308.94
2022-11-27T10:05:13.371Z,97291.69
2022-11-27T10:06:28.204Z,97298.81
2022-11-27T10:08:08.281Z,97299.19
2022-11-27T10:09:54.469Z,97296.03
2022-11-27T10:11:17.594Z,97298.28
2022-11-27T10:12:25.795Z,97298.75
2022-11-27T10:13:55.745Z,97288.59
2022-11-27T10:15:12.250Z,97294.03
2022-11-27T10:16:24.783Z,97268.59
2022-11-27T10:17:48.325Z,97283.56
2022-11-27T10:19:14.049Z,97275.66
2022-11-27T10:20:35.917Z,97287.81
2022-11-27T10:21:43.177Z,97283.66
2022-11-27T10:22:51.165Z,97285.16
2022-11-27T10:24:18.208Z,97293.00
2022-11-27T10:25:42.893Z,97277.31
2022-11-27T10:26:50.097Z,97285.50
2022-11-27T10:28:43.860Z,97282.03
2022-11-27T10:29:54.189Z,97280.84
2022-11-27T10:31:02.537Z,97278.09
2022-11-27T10:32:46.663Z,97271.31
2022-11-27T10:33:45.168Z,97240.59
2022-11-27T10:35:03.934Z,97274.06
2022-11-27T10:36:12.867Z,97256.72
2022-11-27T10:37:28.529Z,97273.69
2022-11-27T10:38:35.567Z,97270.81
2022-11-27T10:39:41.722Z,97267.22
2022-11-27T10:40:58.581Z,97272.94
2022-11-27T10:42:08.948Z,97267.75
2022-11-27T10:43:18.717Z,97277.63
2022-11-27T10:44:35.653Z,97244.81
2022-11-27T10:45:44.480Z,97277.88
2022-11-27T10:46:47.080Z,97264.22
2022-11-27T10:47:48.675Z,97274.16
2022-11-27T10:48:55.971Z,97259.88
2022-11-27T10:49:57.575Z,97271.34
2022-11-27T10:51:00.435Z,97258.25
2022-11-27T10:52:01.819Z,97261.56
2022-11-27T10:53:07.200Z,97261.72
2022-11-27T10:54:21.058Z,97259.53
2022-11-27T10:55:53.414Z,97255.81
2022-11-27T10:57:00.162Z,97255.47
2022-11-27T10:58:19.995Z,97249.41
2022-11-27T10:59:34.987Z,97237.63
2022-11-27T11:00:36.595Z,97223.19
2022-11-27T11:01:47.298Z,97221.84
2022-11-27T11:02:50.013Z,97223.69
2022-11-27T11:04:14.209Z,97218.50
2022-11-27T11:05:45.143Z,97209.88
2022-11-27T11:06:52.400Z,97215.06
2022-11-27T11:08:02.548Z,97209.69
2022-11-27T11:09:12.931Z,97189.69
2022-11-27T11:10:43.070Z,97197.91
2022-11-27T11:11:45.060Z,97194.53
2022-11-27T11:12:46.518Z,97203.00
2022-11-27T11:13:47.959Z,97174.47
2022-11-27T11:14:57.394Z,97189.28
2022-11-27T11:16:08.022Z,97189.88
2022-11-27T11:17:17.639Z,97188.31
2022-11-27T11:18:22.366Z,97185.88
2022-11-27T11:19:29.143Z,97188.94
2022-11-27T11:20:34.132Z,97185.22
2022-11-27T11:21:40.449Z,97176.66
2022-11-27T11:22:47.198Z,97169.56
2022-11-27T11:23:57.149Z,97149.13
2022-11-27T11:24:58.619Z,97155.28
2022-11-27T11:26:04.708Z,97154.66
2022-11-27T11:27:11.635Z,97138.38
2022-11-27T11:28:18.268Z,97157.03
2022-11-27T11:29:28.533Z,97151.03
2022-11-27T11:30:37.773Z,97148.97
2022-11-27T11:31:40.807Z,97150.50
2022-11-27T11:32:42.358Z,97153.34
2022-11-27T11:33:56.261Z,97154.13
2022-11-27T11:35:26.649Z,97116.25
2022-11-27T11:36:28.597Z,97142.63
2022-11-27T11:37:39.556Z,97148.09
2022-11-27T11:38:45.563Z,97141.66
2022-11-27T11:39:54.220Z,97142.97
2022-11-27T11:41:04.809Z,97140.78
2022-11-27T11:42:20.107Z,97132.19
2022-11-27T11:43:27.051Z,97141.19
2022-11-27T11:44:36.697Z,97135.94
2022-11-27T11:45:46.726Z,97147.69
2022-11-27T11:46:53.774Z,97142.25
2022-11-27T11:47:57.933Z,97153.47
2022-11-27T11:49:24.144Z,97148.88
2022-11-27T11:50:32.673Z,97146.88
2022-11-27T11:52:24.658Z,97146.75
2022-11-27T11:53:34.192Z,97116.69
2022-11-27T11:54:58.270Z,97142.63
2022-11-27T11:56:28.591Z,97130.94
2022-11-27T11:58:04.025Z,97135.53
2022-11-27T11:59:11.187Z,97135.38
2022-11-27T12:00:17.664Z,97127.66
2022-11-27T12:01:54.461Z,97129.91
2022-11-27T12:03:01.733Z,97129.06
2022-11-27T12:04:11.423Z,97121.09
2022-11-27T12:05:35.902Z,97125.38
2022-11-27T12:06:43.285Z,97122.94
2022-11-27T12:08:00.005Z,97129.00
2022-11-27T12:09:24.410Z,97127.25
2022-11-27T12:10:43.042Z,97125.31
2022-11-27T12:11:56.164Z,97121.16
2022-11-27T12:13:16.396Z,97115.66
2022-11-27T12:14:45.142Z,97102.06
2022-11-27T12:16:07.918Z,97104.06
2022-11-27T12:17:51.164Z,97062.94
2022-11-27T12:19:28.815Z,97100.22
2022-11-27T12:20:53.147Z,97100.81
2022-11-27T12:22:37.032Z,97100.16
2022-11-27T12:24:09.349Z,97096.97
2022-11-27T12:25:39.402Z,97102.59
2022-11-27T12:26:52.984Z,97101.75
2022-11-27T12:28:06.347Z,97102.31
2022-11-27T12:29:37.879Z,97092.59
2022-11-27T12:31:11.891Z,97091.16
2022-11-27T12:32:37.436Z,97089.34
2022-11-27T12:34:00.619Z,97086.06
2022-11-27T12:35:32.215Z,97083.81
2022-11-27T12:37:01.073Z,97093.31
2022-11-27T12:38:30.424Z,97079.25
2022-11-27T12:39:40.841Z,97088.84
2022-11-27T12:41:04.271Z,97064.56
2022-11-27T12:42:21.983Z,97085.09
2022-11-27T12:43:34.894Z,97084.44
2022-11-27T12:44:58.719Z,97075.63
2022-11-27T12:46:09.879Z,97076.19
2022-11-27T12:47:40.206Z,97068.28
2022-11-27T12:48:47.980Z,97075.06
2022-11-27T12:49:57.356Z,97071.81
2022-11-27T12:51:29.215Z,97064.19
2022-11-27T12:52:43.890Z,97058.38
2022-11-27T12:53:51.327Z,97065.44
2022-11-27T12:55:23.292Z,97064.38
2022-11-27T12:56:50.744Z,97055.84
2022-11-27T12:58:19.248Z,97059.44
2022-11-27T12:59:23.597Z,97053.09
2022-11-27T13:00:29.379Z,97046.66
2022-11-27T13:01:39.536Z,97053.75
2022-11-27T13:02:49.871Z,97053.63
2022-11-27T13:04:06.681Z,97060.13
2022-11-27T13:05:14.640Z,97044.91
2022-11-27T13:06:24.779Z,97036.28
2022-11-27T13:07:38.535Z,97054.03
2022-11-27T13:08:58.774Z,97042.91
2022-11-27T13:10:02.799Z,97059.53
2022-11-27T13:11:08.620Z,97043.75
2022-11-27T13:12:17.556Z,97045.94
2022-11-27T13:13:30.262Z,97043.34
2022-11-27T13:14:37.945Z,97048.75
2022-11-27T13:15:44.942Z,97051.53
2022-11-27T13:16:52.606Z,97048.69
2022-11-27T13:18:07.497Z,97024.84
2022-11-27T13:19:48.513Z,97048.94
2022-11-27T13:20:52.894Z,97041.84
2022-11-27T13:22:01.041Z,97044.22
2022-11-27T13:23:02.575Z,97042.06
2022-11-27T13:24:04.429Z,97042.13
2022-11-27T13:25:06.414Z,97042.75
2022-11-27T13:26:18.055Z,97039.28
2022-11-27T13:27:25.865Z,97028.25
2022-11-27T13:28:42.546Z,97035.91
2022-11-27T13:29:49.741Z,97036.63
2022-11-27T13:30:54.144Z,97040.63
2022-11-27T13:31:59.952Z,97027.91
2022-11-27T13:33:03.004Z,97033.34
2022-11-27T13:34:08.125Z,97032.19
2022-11-27T13:35:46.755Z,97036.88
2022-11-27T13:36:57.237Z,97032.97
2022-11-27T13:38:11.527Z,97030.66
2022-11-27T13:39:27.914Z,97021.38
2022-11-27T13:40:36.479Z,97019.00
2022-11-27T13:41:40.931Z,97030.34
2022-11-27T13:42:45.787Z,97021.00
2022-11-27T13:43:48.262Z,97014.06
2022-11-27T13:44:57.123Z,97016.28
2022-11-27T13:46:04.829Z,97028.22
2022-11-27T13:47:16.545Z,97026.63
2022-11-27T13:48:30.248Z,97028.81
2022-11-27T13:49:33.299Z,97022.63
2022-11-27T13:50:43.384Z,97023.50
2022-11-27T13:51:44.924Z,97006.63
2022-11-27T13:53:00.610Z,97024.66
2022-11-27T13:54:13.848Z,97020.66
2022-11-27T13:55:25.977Z,97014.53
2022-11-27T13:56:31.309Z,97010.56
2022-11-27T13:57:34.440Z,97008.97
2022-11-27T13:58:41.504Z,97012.19
2022-11-27T13:59:56.688Z,97001.00
2022-11-27T14:00:59.354Z,97013.03
2022-11-27T14:02:03.222Z,97002.72
2022-11-27T14:03:06.458Z,97004.28
2022-11-27T14:04:11.659Z,96999.06
2022-11-27T14:05:15.221Z,96991.56
2022-11-27T14:06:33.828Z,97003.00
2022-11-27T14:07:41.097Z,97003.66
2022-11-27T14:08:52.564Z,96998.41
2022-11-27T14:09:56.236Z,97008.44
2022-11-27T14:11:00.810Z,96985.56
2022-11-27T14:12:17.321Z,96996.28
2022-11-27T14:13:21.476Z,96997.00
2022-11-27T14:14:28.299Z,96984.06
2022-11-27T14:15:31.491Z,96984.06
2022-11-27T14:16:35.472Z,96976.28
2022-11-27T14:17:42.927Z,96955.44
2022-11-27T14:18:51.677Z,96973.69
2022-11-27T14:20:36.083Z,96976.50
2022-11-27T14:21:43.106Z,96950.41
2022-11-27T14:23:18.803Z,96960.28
2022-11-27T14:24:34.291Z,96977.63
2022-11-27T14:25:36.536Z,96947.56
2022-11-27T14:26:41.158Z,96978.25
2022-11-27T14:27:43.104Z,96976.53
2022-11-27T14:28:52.527Z,96963.06
2022-11-27T14:29:54.136Z,96962.19
2022-11-27T14:30:58.306Z,96944.00
2022-11-27T14:32:01.839Z,96955.56
2022-11-27T14:33:04.740Z,96961.69
2022-11-27T14:34:23.241Z,96961.63
2022-11-27T14:35:28.634Z,96958.44
2022-11-27T14:36:32.491Z,96927.72
2022-11-27T14:37:33.807Z,96947.56
2022-11-27T14:38:35.445Z,96948.41
2022-11-27T14:39:37.747Z,96940.28
2022-11-27T14:40:39.263Z,96946.69
2022-11-27T14:41:40.743Z,96940.81
2022-11-27T14:42:42.175Z,96936.28
2022-11-27T14:43:43.892Z,96929.63
2022-11-27T14:44:45.253Z,96927.16
2022-11-27T14:45:49.569Z,96928.03
2022-11-27T14:46:51.879Z,96914.38
2022-11-27T14:47:54.846Z,96914.94
2022-11-27T14:48:56.439Z,96909.25
2022-11-27T14:49:58.253Z,96908.28
2022-11-27T14:51:00.450Z,96917.34
2022-11-27T14:52:08.604Z,96920.19
2022-11-27T14:53:11.522Z,96913.28
2022-11-27T14:54:20.466Z,96912.84
2022-11-27T14:55:22.597Z,96903.84
2022-11-27T14:56:27.185Z,96914.00
2022-11-27T14:57:30.057Z,96909.13
2022-11-27T14:58:31.809Z,96909.25
2022-11-27T14:59:33.524Z,96901.47
2022-11-27T15:00:35.037Z,96911.78
2022-11-27T15:01:37.588Z,96897.25
2022-11-27T15:02:39.406Z,96907.38
2022-11-27T15:03:41.357Z,96893.03
2022-11-27T15:04:44.580Z,96902.31
2022-11-27T15:05:57.219Z,96907.69
2022-11-27T15:06:59.430Z,96910.06
2022-11-27T15:08:02.332Z,96904.78
2022-11-27T15:09:30.200Z,96903.88
2022-11-27T15:10:40.386Z,96915.06
2022-11-27T15:11:55.669Z,96917.56
2022-11-27T15:13:03.593Z,96913.31
2022-11-27T15:14:06.384Z,96915.94
2022-11-27T15:15:26.360Z,96916.81
2022-11-27T15:16:31.223Z,96883.47
2022-11-27T15:17:38.661Z,96906.44
2022-11-27T15:18:42.207Z,96906.66
2022-11-27T15:19:43.957Z,96904.91
2022-11-27T15:20:49.436Z,96913.53
2022-11-27T15:21:51.088Z,96899.09
2022-11-27T15:22:58.271Z,96899.06
2022-11-27T15:23:59.599Z,96906.00
2022-11-27T15:25:03.623Z,96906.00
2022-11-27T15:26:15.891Z,96910.25
2022-11-27T15:27:21.455Z,96902.50
2022-11-27T15:28:52.129Z,96906.00
2022-11-27T15:29:53.398Z,96902.78
2022-11-27T15:30:56.561Z,96894.25
2022-11-27T15:31:58.138Z,96902.81
2022-11-27T15:33:00.404Z,96901.94
2022-11-27T15:34:14.032Z,96908.88
2022-11-27T15:35:20.844Z,96881.53
2022-11-27T15:36:22.474Z,96896.00
2022-11-27T15:37:27.141Z,96895.16
2022-11-27T15:38:28.577Z,96891.88
2022-11-27T15:39:38.501Z,96904.78
2022-11-27T15:40:41.166Z,96887.53
2022-11-27T15:42:06.481Z,96885.00
2022-11-27T15:43:13.304Z,96881.53
2022-11-27T15:44:14.705Z,96881.59
2022-11-27T15:45:16.189Z,96862.06
2022-11-27T15:46:34.455Z,96880.03
2022-11-27T15:47:37.716Z,96876.44
2022-11-27T15:48:39.205Z,96879.16
2022-11-27T15:49:40.576Z,96877.59
2022-11-27T15:50:45.385Z,96867.28
2022-11-27T15:51:50.689Z,96877.47
2022-11-27T15:52:52.042Z,96874.94
2022-11-27T15:53:53.567Z,96877.03
2022-11-27T15:54:56.525Z,96865.75
2022-11-27T15:55:58.200Z,96872.47
2022-11-27T15:56:59.538Z,96856.16
2022-11-27T15:58:00.858Z,96854.28
2022-11-27T15:59:02.269Z,96868.00
2022-11-27T16:00:04.602Z,96840.72
2022-11-27T16:01:09.406Z,96862.91
2022-11-27T16:02:17.541Z,96863.94
2022-11-27T16:03:19.703Z,96842.53
2022-11-27T16:04:21.231Z,96849.34
2022-11-27T16:05:22.681Z,96861.38
2022-11-27T16:06:24.763Z,96860.44
2022-11-27T16:07:26.325Z,96861.25
2022-11-27T16:08:27.792Z,96858.78
2022-11-27T16:09:29.222Z,96863.22
2022-11-27T16:10:30.660Z,96827.16
2022-11-27T16:11:32.555Z,96859.59
2022-11-27T16:12:38.303Z,96843.19
2022-11-27T16:13:39.695Z,96856.88
2022-11-27T16:14:41.234Z,96850.03
2022-11-27T16:15:42.810Z,96852.94
2022-11-27T16:16:44.276Z,96848.59
2022-11-27T16:17:45.725Z,96852.06
2022-11-27T16:18:47.265Z,96852.81
2022-11-27T16:19:48.686Z,96818.78
2022-11-27T16:20:50.108Z,96841.88
2022-11-27T16:21:51.495Z,96834.34
2022-11-27T16:22:53.731Z,96837.09
2022-11-27T16:23:59.897Z,96825.91
2022-11-27T16:25:01.426Z,96838.66
2022-11-27T16:26:03.778Z,96816.38
2022-11-27T16:27:06.745Z,96833.44
2022-11-27T16:28:08.098Z,96828.16
2022-11-27T16:29:10.076Z,96825.72
2022-11-27T16:30:13.086Z,96814.69
2022-11-27T16:31:15.333Z,96816.63
2022-11-27T16:32:16.897Z,96813.72
2022-11-27T16:33:23.494Z,96811.00
2022-11-27T16:34:25.047Z,96818.44
2022-11-27T16:35:26.458Z,96816.22
2022-11-27T16:36:28.510Z,96822.19
2022-11-27T16:37:30.049Z,96819.63
2022-11-27T16:38:35.183Z,96824.53
2022-11-27T16:39:36.750Z,96824.47
2022-11-27T16:40:38.302Z,96821.03
2022-11-27T16:41:39.757Z,96817.72
2022-11-27T16:42:41.220Z,96814.13
2022-11-27T16:43:45.731Z,96801.28
2022-11-27T16:44:47.504Z,96777.41
2022-11-27T16:45:48.870Z,96811.72
2022-11-27T16:46:51.201Z,96811.56
